Time;durP1;ratioP1;P1;durP2;ratioP2;P2;SDS_P1;SDS_P2;PMS_P1;PMS_P2;Temp;Humidity;BMP_temperature;BMP_pressure;BME280_temperature;BME280_humidity;BME280_pressure;Samples;Min_cycle;Max_cycle;Signal;HPM_P1;HPM_P2
2021/12/19 00:01:54;;;;;;;20.05;11.60;;;8.20;99.90;;;;;;5057968;28;20020;-59
2021/12/19 00:04:20;;;;;;;21.83;11.73;;;8.20;99.90;;;;;;5062754;28;20033;-59
2021/12/19 00:09:24;;;;;;;22.83;11.60;;;8.10;99.90;;;;;;5074092;28;20499;-59
2021/12/19 00:11:49;;;;;;;21.23;12.43;;;8.20;99.90;;;;;;5071005;28;20494;-59
2021/12/19 00:14:15;;;;;;;24.27;11.93;;;8.20;99.90;;;;;;5074004;28;20032;-59
2021/12/19 00:16:41;;;;;;;29.77;14.15;;;8.20;99.90;;;;;;5073799;28;20536;-59
2021/12/19 00:19:06;;;;;;;34.40;16.52;;;8.10;99.90;;;;;;5070411;28;20048;-59
2021/12/19 00:21:32;;;;;;;32.58;14.93;;;8.20;99.90;;;;;;5079286;28;20526;-59
2021/12/19 00:23:58;;;;;;;35.13;15.52;;;8.10;99.90;;;;;;5073398;28;20571;-59
2021/12/19 00:26:24;;;;;;;31.27;14.18;;;8.10;99.90;;;;;;5072637;28;20388;-59
2021/12/19 00:28:50;;;;;;;32.15;14.60;;;8.10;99.90;;;;;;5053965;28;20396;-59
2021/12/19 00:31:16;;;;;;;29.65;13.02;;;8.10;99.90;;;;;;5073227;28;20040;-59
2021/12/19 00:33:42;;;;;;;26.15;12.30;;;8.10;99.90;;;;;;5067630;28;20054;-59
2021/12/19 00:36:09;;;;;;;23.02;11.40;;;8.10;99.90;;;;;;5073751;28;20017;-59
2021/12/19 00:38:35;;;;;;;25.17;11.38;;;8.10;99.90;;;;;;5078919;28;20051;-59
2021/12/19 00:41:01;;;;;;;21.77;10.90;;;8.10;99.90;;;;;;5074045;28;20172;-59
2021/12/19 00:43:43;;;;;;;18.02;9.45;;;8.10;99.90;;;;;;5053608;28;20561;-59
2021/12/19 00:46:08;;;;;;;19.45;9.52;;;8.10;99.90;;;;;;5075250;28;20021;-59
2021/12/19 00:48:40;;;;;;;18.52;9.32;;;8.10;99.90;;;;;;5068582;28;20032;-59
2021/12/19 00:51:07;;;;;;;22.65;11.70;;;8.20;99.90;;;;;;5070341;28;20056;-59
2021/12/19 00:53:34;;;;;;;26.27;12.25;;;8.10;99.90;;;;;;5081494;28;20036;-59
2021/12/19 00:56:00;;;;;;;30.70;15.00;;;8.10;99.90;;;;;;5070062;28;20038;-59
2021/12/19 00:58:26;;;;;;;28.45;14.15;;;8.10;99.90;;;;;;5049756;28;20365;-60
2021/12/19 01:00:51;;;;;;;27.60;13.55;;;8.10;99.90;;;;;;5070442;28;20035;-59
2021/12/19 01:03:18;;;;;;;25.05;12.85;;;8.00;99.90;;;;;;5072919;28;20031;-59
2021/12/19 01:05:44;;;;;;;26.10;12.93;;;8.00;99.90;;;;;;5052602;28;20415;-59
2021/12/19 01:08:12;;;;;;;25.33;12.30;;;8.00;99.90;;;;;;5070673;28;20048;-59
2021/12/19 01:10:39;;;;;;;24.20;11.75;;;7.90;99.90;;;;;;5070134;28;20016;-59
2021/12/19 01:13:05;;;;;;;24.08;12.25;;;7.90;99.90;;;;;;5073403;28;20025;-59
2021/12/19 01:15:31;;;;;;;22.15;11.70;;;7.90;99.90;;;;;;5075704;28;20044;-59
2021/12/19 01:17:57;;;;;;;20.45;10.68;;;7.80;99.90;;;;;;5069955;28;20087;-59
2021/12/19 01:20:26;;;;;;;20.98;9.32;;;7.80;99.90;;;;;;5072844;28;20064;-59
2021/12/19 01:22:52;;;;;;;20.30;11.10;;;7.80;99.90;;;;;;5070303;28;20024;-59
2021/12/19 01:25:18;;;;;;;16.92;9.27;;;7.70;99.90;;;;;;5070041;28;20107;-59
2021/12/19 01:27:44;;;;;;;15.98;9.52;;;7.70;99.90;;;;;;5073037;28;20563;-59
2021/12/19 01:30:11;;;;;;;23.38;10.80;;;7.70;99.90;;;;;;5073123;28;20037;-59
2021/12/19 01:32:38;;;;;;;23.17;11.73;;;7.70;99.90;;;;;;5070047;28;20025;-59
2021/12/19 01:35:06;;;;;;;19.65;10.35;;;7.70;99.90;;;;;;5070041;28;20075;-60
2021/12/19 01:37:46;;;;;;;;;;;;;;;;;;;;;
2021/12/19 01:40:15;;;;;;;19.33;10.02;;;7.70;99.90;;;;;;5073641;28;20016;-59
2021/12/19 01:42:44;;;;;;;29.65;12.73;;;7.70;99.90;;;;;;5080362;28;20023;-60
2021/12/19 01:45:13;;;;;;;31.08;13.55;;;7.70;99.90;;;;;;5073534;28;20017;-59
2021/12/19 01:47:40;;;;;;;26.58;13.05;;;7.70;99.90;;;;;;5063983;28;20020;-59
2021/12/19 01:50:07;;;;;;;31.48;15.15;;;7.70;99.90;;;;;;5089071;28;20031;-59
2021/12/19 01:52:33;;;;;;;42.47;19.60;;;7.70;99.90;;;;;;5073384;28;20472;-59
2021/12/19 01:54:59;;;;;;;51.63;21.08;;;7.70;99.90;;;;;;5090631;28;20042;-59
2021/12/19 01:57:25;;;;;;;46.72;19.10;;;7.60;99.90;;;;;;5088070;28;20031;-59
2021/12/19 01:59:55;;;;;;;44.65;18.48;;;7.60;99.90;;;;;;5088101;28;20557;-59
2021/12/19 02:02:21;;;;;;;43.58;18.75;;;7.50;99.90;;;;;;5085416;28;20103;-59
2021/12/19 02:04:47;;;;;;;41.33;17.88;;;7.50;99.90;;;;;;5087789;28;20048;-59
2021/12/19 02:07:13;;;;;;;40.67;17.48;;;7.50;99.90;;;;;;5087740;28;20071;-59
2021/12/19 02:09:41;;;;;;;35.30;17.42;;;7.40;99.90;;;;;;5090352;28;20024;-59
2021/12/19 02:12:07;;;;;;;35.20;18.02;;;7.40;99.90;;;;;;5082590;28;20024;-59
2021/12/19 02:14:33;;;;;;;37.17;17.08;;;7.40;99.90;;;;;;5085388;28;20024;-59
2021/12/19 02:16:58;;;;;;;29.35;16.10;;;7.40;99.90;;;;;;5087542;28;20447;-59
2021/12/19 02:19:24;;;;;;;28.60;14.60;;;7.40;99.90;;;;;;5082029;28;20054;-59
2021/12/19 02:21:50;;;;;;;31.80;15.40;;;7.30;99.90;;;;;;5090279;28;20049;-59
2021/12/19 02:24:16;;;;;;;28.45;13.85;;;7.30;99.90;;;;;;5090236;28;20451;-59
2021/12/19 02:26:43;;;;;;;27.85;13.98;;;7.30;99.90;;;;;;5083940;28;20085;-59
2021/12/19 02:29:09;;;;;;;26.63;14.82;;;7.30;99.90;;;;;;5084041;28;20027;-59
2021/12/19 02:31:35;;;;;;;27.65;14.68;;;7.30;99.90;;;;;;5086633;28;20055;-59
2021/12/19 02:36:49;;;;;;;24.17;13.63;;;7.30;99.90;;;;;;5085887;28;20063;-59
2021/12/19 02:48:17;;;;;;;23.77;12.43;;;7.30;99.90;;;;;;5090228;28;20096;-59
2021/12/19 02:50:35;;;;;;;21.92;11.35;;;7.20;99.90;;;;;;5081998;28;20040;-59
2021/12/19 02:53:01;;;;;;;23.00;11.65;;;7.20;99.90;;;;;;5086607;28;20044;-59
2021/12/19 02:55:26;;;;;;;24.38;11.32;;;7.20;99.90;;;;;;5084642;28;20028;-59
2021/12/19 02:57:52;;;;;;;19.48;11.23;;;7.20;99.90;;;;;;5084177;28;20024;-59
2021/12/19 03:00:22;;;;;;;17.25;10.15;;;7.20;99.90;;;;;;5089521;28;20051;-59
2021/12/19 03:02:48;;;;;;;19.33;9.48;;;7.20;99.90;;;;;;5055096;28;20465;-59
2021/12/19 03:05:14;;;;;;;17.80;9.48;;;7.20;99.90;;;;;;5089501;28;20032;-59
2021/12/19 03:07:42;;;;;;;15.68;8.75;;;7.20;99.90;;;;;;5089009;28;20043;-59
2021/12/19 03:18:11;;;;;;;15.15;7.53;;;7.20;99.90;;;;;;5089440;28;20067;-59
2021/12/19 03:20:39;;;;;;;12.85;7.00;;;7.10;99.90;;;;;;5086353;28;20050;-59
2021/12/19 03:23:06;;;;;;;11.80;7.07;;;7.10;99.90;;;;;;5081202;28;20032;-59
2021/12/19 03:25:33;;;;;;;13.25;6.95;;;7.20;99.90;;;;;;5081533;28;20115;-59
2021/12/19 03:28:00;;;;;;;12.23;6.45;;;7.20;99.90;;;;;;5085834;28;20031;-60
2021/12/19 03:30:26;;;;;;;9.70;5.00;;;7.20;99.90;;;;;;5088974;28;20028;-60
2021/12/19 03:32:52;;;;;;;8.88;4.70;;;7.20;99.90;;;;;;5088565;28;20038;-59
2021/12/19 03:35:18;;;;;;;10.75;4.90;;;7.20;99.90;;;;;;5088664;28;20024;-59
2021/12/19 03:37:43;;;;;;;10.00;4.57;;;7.20;99.90;;;;;;5067971;28;20027;-59
2021/12/19 03:40:12;;;;;;;9.93;5.05;;;7.20;99.90;;;;;;5083483;28;20024;-60
2021/12/19 03:42:51;;;;;;;10.32;4.40;;;7.20;99.90;;;;;;5088183;28;20024;-59
2021/12/19 03:45:20;;;;;;;10.77;5.50;;;7.20;99.90;;;;;;5080811;28;20027;-59
2021/12/19 03:47:46;;;;;;;8.38;3.70;;;7.10;99.90;;;;;;5054455;28;20032;-59
2021/12/19 03:50:16;;;;;;;7.95;4.22;;;7.10;99.90;;;;;;5068576;28;20030;-60
2021/12/19 03:52:42;;;;;;;8.00;3.85;;;7.20;99.90;;;;;;5085833;28;20020;-59
2021/12/19 03:55:08;;;;;;;9.48;4.22;;;7.10;99.90;;;;;;5088493;28;20035;-59
2021/12/19 03:57:33;;;;;;;8.65;3.95;;;7.10;99.90;;;;;;5088537;28;20094;-59
2021/12/19 03:59:59;;;;;;;9.35;5.03;;;7.10;99.90;;;;;;5085194;28;20114;-59
2021/12/19 04:02:26;;;;;;;9.73;5.13;;;7.10;99.90;;;;;;5085775;28;20036;-59
2021/12/19 04:04:54;;;;;;;7.72;4.40;;;7.10;99.90;;;;;;5085932;28;20529;-59
2021/12/19 04:07:20;;;;;;;8.60;4.60;;;7.10;99.90;;;;;;5082829;28;20074;-59
2021/12/19 04:09:45;;;;;;;10.07;4.80;;;7.10;99.90;;;;;;5085638;28;20028;-59
2021/12/19 04:12:11;;;;;;;11.10;4.88;;;7.20;99.90;;;;;;5088510;28;20028;-60
2021/12/19 04:14:37;;;;;;;8.88;5.18;;;7.10;99.90;;;;;;5082591;28;20385;-59
2021/12/19 04:17:02;;;;;;;7.95;4.43;;;7.20;99.90;;;;;;5082346;28;20077;-59
2021/12/19 04:19:29;;;;;;;11.18;5.07;;;7.20;99.90;;;;;;5086282;28;20048;-59
2021/12/19 04:21:55;;;;;;;8.70;4.78;;;7.10;99.90;;;;;;5088185;28;20039;-59
2021/12/19 04:24:20;;;;;;;9.35;4.93;;;7.10;99.90;;;;;;5085300;28;20071;-59
2021/12/19 04:26:46;;;;;;;8.82;5.18;;;7.10;99.90;;;;;;5085616;28;20052;-59
2021/12/19 04:29:11;;;;;;;11.73;5.72;;;7.10;99.90;;;;;;5086293;28;20031;-59
2021/12/19 04:31:37;;;;;;;11.43;6.13;;;7.10;99.90;;;;;;5082341;28;20559;-59
2021/12/19 04:34:04;;;;;;;8.93;4.93;;;7.10;99.90;;;;;;5085500;28;20056;-59
2021/12/19 04:36:34;;;;;;;9.20;5.47;;;7.10;99.90;;;;;;5088034;28;20028;-59
2021/12/19 04:54:55;;;;;;;12.48;5.07;;;7.10;99.90;;;;;;5053755;28;20056;-59
2021/12/19 04:57:32;;;;;;;11.10;5.10;;;7.10;99.90;;;;;;5081702;28;20038;-59
2021/12/19 05:00:05;;;;;;;9.18;4.40;;;7.10;99.90;;;;;;5085156;28;20391;-59
2021/12/19 05:05:24;;;;;;;8.75;4.07;;;7.10;99.90;;;;;;5081528;28;20024;-59
2021/12/19 05:16:02;;;;;;;7.50;3.78;;;7.10;99.90;;;;;;5089273;28;20038;-59
2021/12/19 05:18:31;;;;;;;6.32;3.72;;;7.10;99.90;;;;;;5089250;28;20048;-59
2021/12/19 05:21:12;;;;;;;6.80;3.47;;;7.10;99.90;;;;;;5086408;28;20478;-59
2021/12/19 05:26:09;;;;;;;10.48;4.40;;;7.10;99.90;;;;;;5088716;28;20017;-59
2021/12/19 05:28:35;;;;;;;10.20;4.60;;;7.10;99.90;;;;;;5073200;28;20479;-59
2021/12/19 05:31:01;;;;;;;8.43;4.03;;;7.10;99.90;;;;;;5091119;28;20032;-59
2021/12/19 05:33:48;;;;;;;9.88;4.05;;;7.20;99.90;;;;;;5088815;28;20039;-59
2021/12/19 05:44:15;;;;;;;8.98;3.75;;;7.20;99.90;;;;;;5086345;28;20012;-59
2021/12/19 05:46:42;;;;;;;7.78;3.83;;;7.20;99.90;;;;;;5088777;28;20024;-59
2021/12/19 05:49:09;;;;;;;9.30;4.03;;;7.20;99.90;;;;;;5085602;28;20047;-59
2021/12/19 05:51:35;;;;;;;8.02;3.97;;;7.20;99.90;;;;;;5059398;28;20491;-59
2021/12/19 05:54:01;;;;;;;7.78;3.40;;;7.20;99.90;;;;;;5087601;28;20115;-59
2021/12/19 05:56:27;;;;;;;6.75;3.75;;;7.20;99.90;;;;;;5084634;28;20035;-59
2021/12/19 05:58:53;;;;;;;10.52;4.72;;;7.20;99.90;;;;;;5086636;28;20024;-59
2021/12/19 06:01:18;;;;;;;8.02;3.90;;;7.20;99.90;;;;;;5090834;28;20093;-59
2021/12/19 06:03:44;;;;;;;9.50;4.10;;;7.20;99.90;;;;;;5056085;28;20029;-59
2021/12/19 06:06:10;;;;;;;11.07;4.45;;;7.20;99.90;;;;;;5090771;28;20024;-59
2021/12/19 06:08:35;;;;;;;8.45;3.97;;;7.20;99.90;;;;;;5087877;28;20028;-59
2021/12/19 06:11:01;;;;;;;8.90;3.97;;;7.30;99.90;;;;;;5087570;28;20032;-59
2021/12/19 06:13:26;;;;;;;10.63;4.45;;;7.20;99.90;;;;;;5084897;28;20032;-59
2021/12/19 06:15:54;;;;;;;9.80;4.22;;;7.20;99.90;;;;;;5085993;28;20031;-59
2021/12/19 06:18:20;;;;;;;11.02;4.30;;;7.30;99.90;;;;;;5089647;28;20503;-59
2021/12/19 06:20:47;;;;;;;10.25;3.97;;;7.30;99.90;;;;;;5090570;28;20024;-59
2021/12/19 06:23:13;;;;;;;9.73;4.25;;;7.30;99.90;;;;;;5087318;28;20052;-60
2021/12/19 06:25:45;;;;;;;9.90;4.63;;;7.30;99.90;;;;;;5086306;28;20063;-59
2021/12/19 06:28:13;;;;;;;9.75;4.28;;;7.30;99.90;;;;;;5090395;28;20261;-60
2021/12/19 06:30:38;;;;;;;12.55;4.93;;;7.30;99.90;;;;;;5087570;28;20032;-59
2021/12/19 06:33:25;;;;;;;11.63;5.63;;;7.30;99.90;;;;;;5066886;28;20042;-59
2021/12/19 06:35:51;;;;;;;11.00;4.47;;;7.30;99.90;;;;;;5092783;28;20074;-60
2021/12/19 06:38:16;;;;;;;10.90;4.82;;;7.30;99.90;;;;;;5094072;28;20052;-59
2021/12/19 06:40:42;;;;;;;13.52;5.40;;;7.30;99.90;;;;;;5091591;28;20531;-59
2021/12/19 06:43:07;;;;;;;12.23;5.22;;;7.30;99.90;;;;;;5093362;28;20023;-60
2021/12/19 06:45:33;;;;;;;11.30;5.07;;;7.30;99.90;;;;;;5089313;28;20031;-59
2021/12/19 06:47:58;;;;;;;12.52;5.78;;;7.30;99.90;;;;;;5084531;28;20073;-59
2021/12/19 06:50:24;;;;;;;11.10;5.60;;;7.40;99.90;;;;;;5086282;28;20024;-59
2021/12/19 06:52:50;;;;;;;11.48;6.70;;;7.40;99.90;;;;;;5067876;28;20054;-59
2021/12/19 06:55:17;;;;;;;14.38;7.03;;;7.40;99.90;;;;;;5089653;28;20399;-59
2021/12/19 06:57:43;;;;;;;13.13;6.20;;;7.40;99.90;;;;;;5090184;28;20073;-59
2021/12/19 07:00:13;;;;;;;14.45;6.22;;;7.40;99.90;;;;;;5089175;28;20064;-60
2021/12/19 07:02:39;;;;;;;;;;;7.40;99.90;;;;;;5090354;28;20020;-59
2021/12/19 07:05:05;;;;;;;13.95;7.03;;;7.30;99.90;;;;;;5089604;28;19911;-59
2021/12/19 07:07:31;;;;;;;13.55;6.18;;;7.30;99.90;;;;;;5092516;28;20107;-59
2021/12/19 07:09:57;;;;;;;15.00;6.80;;;7.40;99.90;;;;;;5093796;28;20035;-59
2021/12/19 07:12:26;;;;;;;12.68;7.07;;;7.40;99.90;;;;;;5093406;28;20382;-59
2021/12/19 07:14:55;;;;;;;13.98;6.15;;;7.40;99.90;;;;;;5093505;28;20027;-59
2021/12/19 07:17:21;;;;;;;13.68;6.65;;;7.40;99.90;;;;;;5093334;28;20430;-59
2021/12/19 07:19:46;;;;;;;13.27;5.88;;;7.40;99.90;;;;;;5093209;28;20040;-59
2021/12/19 07:22:12;;;;;;;11.88;6.05;;;7.50;99.90;;;;;;5093108;28;20028;-60
2021/12/19 07:24:37;;;;;;;11.38;5.38;;;7.50;99.90;;;;;;5093280;28;20070;-59
2021/12/19 07:27:03;;;;;;;9.30;5.07;;;7.50;99.90;;;;;;5093281;28;20074;-59
2021/12/19 07:29:30;;;;;;;9.77;4.78;;;7.50;99.90;;;;;;5093182;28;20028;-59
2021/12/19 07:31:57;;;;;;;8.20;4.30;;;7.50;99.90;;;;;;5093266;28;20380;-59
2021/12/19 07:34:29;;;;;;;6.88;4.03;;;7.60;99.90;;;;;;5092953;28;20031;-59
2021/12/19 07:36:55;;;;;;;7.65;3.88;;;7.60;99.90;;;;;;5092900;28;20445;-60
2021/12/19 07:39:26;;;;;;;6.20;3.10;;;7.60;99.90;;;;;;5092971;28;20080;-59
2021/12/19 07:41:52;;;;;;;5.90;2.70;;;7.60;99.90;;;;;;5092817;28;20115;-60
2021/12/19 07:44:18;;;;;;;4.95;2.17;;;7.60;99.90;;;;;;5092835;28;20120;-59
2021/12/19 07:46:44;;;;;;;3.42;1.52;;;7.60;99.90;;;;;;5092818;28;20028;-59
2021/12/19 07:49:10;;;;;;;3.38;1.30;;;7.60;99.90;;;;;;5092739;28;20027;-59
2021/12/19 07:51:36;;;;;;;3.90;1.40;;;7.60;99.90;;;;;;5092897;28;20016;-59
2021/12/19 07:54:01;;;;;;;2.83;1.13;;;7.60;99.90;;;;;;5092729;28;20024;-59
2021/12/19 07:56:27;;;;;;;2.40;0.90;;;7.60;99.90;;;;;;5092669;28;20024;-59
2021/12/19 07:58:53;;;;;;;2.03;0.80;;;7.60;99.90;;;;;;5092539;28;20478;-59
2021/12/19 08:01:18;;;;;;;2.28;0.80;;;7.60;99.90;;;;;;5074265;28;20043;-59
2021/12/19 08:03:44;;;;;;;2.28;0.93;;;7.60;99.90;;;;;;5092392;28;20020;-60
2021/12/19 08:06:09;;;;;;;3.58;0.90;;;7.60;99.90;;;;;;5092564;28;20016;-59
2021/12/19 08:08:36;;;;;;;2.10;0.98;;;7.60;99.90;;;;;;5092380;28;20032;-60
2021/12/19 08:13:46;;;;;;;1.55;0.57;;;7.60;99.90;;;;;;5092200;28;20066;-59
2021/12/19 08:16:11;;;;;;;2.17;1.38;;;7.60;99.90;;;;;;5092213;28;20051;-59
2021/12/19 08:18:37;;;;;;;1.63;0.68;;;7.60;99.90;;;;;;5067042;28;20043;-59
2021/12/19 08:21:02;;;;;;;2.50;0.60;;;7.60;99.90;;;;;;5088341;28;20028;-59
2021/12/19 08:23:28;;;;;;;2.22;0.70;;;7.60;99.90;;;;;;5086117;28;20099;-59
2021/12/19 08:25:54;;;;;;;1.20;0.57;;;7.60;99.90;;;;;;5085518;28;20027;-59
2021/12/19 08:28:42;;;;;;;0.95;0.40;;;7.70;99.90;;;;;;5079903;28;20033;-59
2021/12/19 08:31:08;;;;;;;3.25;0.80;;;7.70;99.90;;;;;;5075323;28;20381;-59
2021/12/19 08:33:33;;;;;;;1.17;0.45;;;7.80;99.90;;;;;;5071776;28;20029;-59
2021/12/19 08:35:59;;;;;;;1.67;0.60;;;7.80;99.90;;;;;;5071770;28;20051;-59
2021/12/19 08:38:26;;;;;;;1.58;0.40;;;7.80;99.90;;;;;;5086827;28;20052;-59
2021/12/19 08:40:51;;;;;;;0.63;0.40;;;7.80;99.90;;;;;;5071586;28;20097;-59
2021/12/19 08:43:18;;;;;;;1.25;0.25;;;7.80;99.90;;;;;;5079589;28;20020;-59
2021/12/19 08:45:44;;;;;;;0.63;0.20;;;7.80;99.90;;;;;;5084131;28;20479;-59
2021/12/19 08:48:09;;;;;;;0.40;0.20;;;7.80;99.90;;;;;;5061503;28;20052;-59
2021/12/19 08:50:35;;;;;;;0.45;0.20;;;7.80;99.90;;;;;;5087517;28;20024;-59
2021/12/19 08:53:28;;;;;;;0.57;0.38;;;7.90;99.90;;;;;;5091998;28;20058;-60
2021/12/19 08:55:54;;;;;;;0.70;0.30;;;8.00;99.90;;;;;;5091857;28;20099;-59
2021/12/19 08:58:19;;;;;;;1.17;0.35;;;8.00;99.90;;;;;;5091657;28;20106;-59
2021/12/19 09:00:45;;;;;;;0.90;0.30;;;8.10;99.90;;;;;;5090593;28;20020;-59
2021/12/19 09:03:10;;;;;;;0.90;0.40;;;8.10;99.90;;;;;;5086282;28;20105;-59
2021/12/19 09:05:41;;;;;;;0.68;0.35;;;8.10;99.90;;;;;;5090479;28;20028;-60
2021/12/19 09:08:07;;;;;;;0.90;0.50;;;8.10;99.90;;;;;;5091138;28;20028;-60
2021/12/19 09:10:33;;;;;;;2.97;1.25;;;8.10;99.90;;;;;;5091266;28;20032;-59
2021/12/19 09:12:58;;;;;;;0.80;0.40;;;8.10;99.90;;;;;;5091369;28;20046;-60
2021/12/19 09:15:24;;;;;;;1.77;0.40;;;8.10;99.90;;;;;;5090508;28;20392;-60
2021/12/19 09:17:50;;;;;;;0.95;0.40;;;8.00;99.90;;;;;;5072351;28;20044;-59
2021/12/19 09:20:16;;;;;;;0.50;0.30;;;8.10;99.90;;;;;;5090833;28;20395;-59
2021/12/19 09:22:42;;;;;;;0.98;0.40;;;8.10;99.90;;;;;;5091040;28;20519;-60
2021/12/19 09:25:09;;;;;;;1.83;0.30;;;8.10;99.90;;;;;;5088367;28;20028;-60
2021/12/19 09:27:35;;;;;;;0.50;0.30;;;8.20;99.90;;;;;;5067949;28;20025;-59
2021/12/19 09:30:00;;;;;;;1.38;0.43;;;8.10;99.90;;;;;;5070853;28;20051;-60
2021/12/19 09:32:27;;;;;;;0.90;0.50;;;8.20;99.90;;;;;;5070824;28;20028;-60
2021/12/19 09:34:53;;;;;;;0.85;0.40;;;8.20;99.90;;;;;;5070763;28;20031;-60
2021/12/19 09:37:18;;;;;;;1.92;0.45;;;8.20;99.90;;;;;;5070016;28;20028;-61
2021/12/19 09:39:44;;;;;;;1.40;0.57;;;8.30;99.90;;;;;;5084629;28;20012;-59
2021/12/19 09:42:10;;;;;;;1.00;0.50;;;8.30;99.90;;;;;;5090659;28;20031;-60
2021/12/19 09:44:39;;;;;;;1.17;0.50;;;8.30;99.90;;;;;;5086853;28;21344;-60
2021/12/19 09:47:07;;;;;;;0.80;0.50;;;8.30;99.90;;;;;;5089446;28;20043;-60
2021/12/19 09:49:49;;;;;;;1.10;0.30;;;8.30;99.90;;;;;;5088583;28;20513;-60
2021/12/19 09:52:15;;;;;;;0.55;0.35;;;8.40;99.90;;;;;;5054675;28;20154;-60
2021/12/19 09:54:41;;;;;;;1.10;0.35;;;8.30;99.90;;;;;;5085519;28;20527;-60
2021/12/19 09:57:07;;;;;;;1.05;0.30;;;8.40;99.90;;;;;;5089957;28;20028;-60
2021/12/19 09:59:46;;;;;;;0.40;0.20;;;8.30;99.90;;;;;;5089309;28;20020;-60
2021/12/19 10:02:12;;;;;;;0.20;0.15;;;8.40;99.90;;;;;;5090230;28;20423;-61
2021/12/19 10:04:37;;;;;;;0.35;0.20;;;8.30;99.90;;;;;;5093000;28;20020;-60
2021/12/19 10:07:45;;;;;;;;;;;;;;;;;;;;;
2021/12/19 10:10:41;;;;;;;0.98;0.20;;;8.40;99.90;;;;;;5090163;28;20012;-61
2021/12/19 10:13:07;;;;;;;0.50;0.28;;;8.40;99.90;;;;;;5084784;28;20511;-60
2021/12/19 10:15:38;;;;;;;0.32;0.20;;;8.40;99.90;;;;;;5074399;28;20055;-60
2021/12/19 10:18:30;;;;;;;0.55;0.30;;;8.40;99.90;;;;;;5092367;28;20046;-60
2021/12/19 10:21:49;;;;;;;0.40;0.20;;;8.50;99.90;;;;;;5087351;28;20027;-60
2021/12/19 10:25:12;;;;;;;0.63;0.30;;;8.50;99.90;;;;;;5080518;28;20084;-61
2021/12/19 10:27:40;;;;;;;0.40;0.20;;;8.40;99.90;;;;;;5084768;28;20594;-60
2021/12/19 10:30:22;;;;;;;3.33;0.45;;;8.40;99.90;;;;;;5092234;28;20028;-60
2021/12/19 10:32:51;;;;;;;1.10;0.30;;;8.40;99.90;;;;;;5094102;28;20012;-60
2021/12/19 10:39:02;;;;;;;2.00;0.80;;;8.40;99.90;;;;;;4993788;28;20046;-60
2021/12/19 10:41:34;;;;;;;3.17;0.77;;;8.30;99.90;;;;;;5068901;28;20043;-60
2021/12/19 10:44:05;;;;;;;3.65;0.98;;;8.30;99.90;;;;;;5073256;28;20073;-60
2021/12/19 10:46:40;;;;;;;2.50;0.98;;;8.40;99.90;;;;;;5073780;28;20111;-60
2021/12/19 10:49:22;;;;;;;1.60;0.77;;;8.40;99.90;;;;;;5091735;28;20025;-60
2021/12/19 10:51:51;;;;;;;1.45;0.70;;;8.40;99.90;;;;;;5093589;28;20028;-60
2021/12/19 10:54:29;;;;;;;3.42;1.13;;;8.40;99.90;;;;;;5093286;28;20071;-60
2021/12/19 10:57:10;;;;;;;2.92;0.70;;;8.40;99.90;;;;;;5093606;28;20028;-60
2021/12/19 10:59:36;;;;;;;1.55;0.70;;;8.50;99.90;;;;;;5093549;28;20020;-60
2021/12/19 11:02:02;;;;;;;2.63;1.05;;;8.50;99.90;;;;;;5093087;28;20101;-60
2021/12/19 11:04:55;;;;;;;4.55;1.55;;;8.50;99.90;;;;;;5092700;28;20052;-60
2021/12/19 11:07:35;;;;;;;2.88;1.60;;;8.50;99.90;;;;;;5093129;28;20067;-60
2021/12/19 11:10:01;;;;;;;2.80;1.50;;;8.50;99.90;;;;;;5092662;28;20020;-60
2021/12/19 11:12:26;;;;;;;3.30;1.20;;;8.50;99.90;;;;;;5093264;28;20024;-60
2021/12/19 11:14:52;;;;;;;3.70;1.40;;;8.50;99.90;;;;;;5093065;28;20040;-60
2021/12/19 11:17:23;;;;;;;3.78;1.38;;;8.50;99.90;;;;;;5093272;28;20012;-60
2021/12/19 11:19:59;;;;;;;3.53;1.60;;;8.60;99.90;;;;;;5088805;28;20496;-60
2021/12/19 11:22:33;;;;;;;2.92;1.33;;;8.50;99.90;;;;;;5091889;28;20051;-60
2021/12/19 11:25:06;;;;;;;2.72;1.35;;;8.50;99.90;;;;;;5087662;28;20441;-60
2021/12/19 11:27:34;;;;;;;3.78;1.58;;;8.50;99.90;;;;;;5086541;28;20447;-60
2021/12/19 11:29:59;;;;;;;4.85;1.45;;;8.50;99.90;;;;;;5086837;28;20046;-60
2021/12/19 11:32:45;;;;;;;3.35;1.17;;;8.60;99.90;;;;;;5091559;28;20028;-60
2021/12/19 11:35:14;;;;;;;3.35;1.65;;;8.60;99.90;;;;;;5088726;28;20066;-60
2021/12/19 11:38:06;;;;;;;3.43;1.40;;;8.60;99.90;;;;;;5091926;28;20016;-60
2021/12/19 11:40:35;;;;;;;3.67;1.88;;;8.60;99.90;;;;;;5085855;28;20032;-60
2021/12/19 11:50:46;;;;;;;3.38;1.55;;;8.60;99.90;;;;;;5051585;28;20032;-60
2021/12/19 11:53:11;;;;;;;2.88;1.80;;;8.60;99.90;;;;;;5069709;28;20417;-60
2021/12/19 11:55:39;;;;;;;4.97;1.90;;;8.60;99.90;;;;;;5092672;28;20491;-60
2021/12/19 11:58:22;;;;;;;5.45;1.80;;;8.50;99.90;;;;;;5092015;28;20028;-60
2021/12/19 12:00:56;;;;;;;6.80;1.67;;;8.60;99.90;;;;;;5092215;28;20032;-60
2021/12/19 12:03:32;;;;;;;2.92;1.90;;;8.50;99.90;;;;;;5091412;28;20024;-60
2021/12/19 12:05:58;;;;;;;4.55;1.92;;;8.60;99.90;;;;;;5073135;28;20023;-60
2021/12/19 12:08:25;;;;;;;5.20;2.22;;;8.50;99.90;;;;;;5091364;28;20032;-60
2021/12/19 12:10:55;;;;;;;4.78;1.83;;;8.60;99.90;;;;;;5092402;28;20059;-60
2021/12/19 12:13:38;;;;;;;5.18;2.05;;;8.60;99.90;;;;;;5074027;28;20024;-60
2021/12/19 12:16:18;;;;;;;5.82;2.10;;;8.60;99.90;;;;;;5092148;28;20364;-60
2021/12/19 12:18:44;;;;;;;4.45;2.30;;;8.60;99.90;;;;;;5091950;28;20082;-60
2021/12/19 12:21:24;;;;;;;7.05;2.33;;;8.60;99.90;;;;;;5090161;28;20028;-61
2021/12/19 12:23:55;;;;;;;8.20;2.80;;;8.60;99.90;;;;;;5089563;28;20099;-61
2021/12/19 12:26:33;;;;;;;6.60;2.03;;;8.60;99.90;;;;;;5071651;28;20381;-60
2021/12/19 12:28:58;;;;;;;2.88;1.85;;;8.60;99.90;;;;;;5072207;28;20032;-60
2021/12/19 12:31:24;;;;;;;5.97;2.25;;;8.60;99.90;;;;;;5071895;28;20029;-61
2021/12/19 12:33:51;;;;;;;5.15;2.17;;;8.60;99.90;;;;;;5071666;28;20100;-60
2021/12/19 12:36:17;;;;;;;5.40;2.60;;;8.60;99.90;;;;;;5071376;28;20032;-60
2021/12/19 12:38:46;;;;;;;5.78;2.45;;;8.60;99.90;;;;;;5071650;28;20025;-60
2021/12/19 12:41:27;;;;;;;5.55;2.35;;;8.60;99.90;;;;;;5087720;28;20031;-60
2021/12/19 12:43:53;;;;;;;5.38;3.50;;;8.60;99.90;;;;;;5067921;28;20028;-60
2021/12/19 12:46:21;;;;;;;6.97;2.97;;;8.50;99.90;;;;;;5069488;28;20028;-60
2021/12/19 12:49:17;;;;;;;8.55;3.25;;;8.50;99.90;;;;;;5086532;28;20016;-61
2021/12/19 12:51:56;;;;;;;6.63;2.92;;;8.50;99.90;;;;;;5090781;28;20024;-60
2021/12/19 12:54:26;;;;;;;5.43;2.97;;;8.40;99.90;;;;;;5067715;28;20111;-60
2021/12/19 12:56:58;;;;;;;7.50;2.63;;;8.40;99.90;;;;;;5088321;28;20530;-60
2021/12/19 12:59:34;;;;;;;5.40;2.60;;;8.40;99.90;;;;;;5061759;28;20108;-60
2021/12/19 13:07:57;;;;;;;4.03;1.95;;;8.50;99.90;;;;;;5049680;28;20361;-60
2021/12/19 13:14:35;;;;;;;3.03;1.55;;;8.60;99.90;;;;;;5047710;28;20028;-60
2021/12/19 13:17:05;;;;;;;4.97;2.47;;;8.60;99.90;;;;;;5090975;28;20056;-60
2021/12/19 13:19:43;;;;;;;5.15;2.42;;;8.60;99.90;;;;;;5090857;28;20048;-61
2021/12/19 13:22:17;;;;;;;6.20;2.85;;;8.50;99.90;;;;;;5089781;28;20483;-60
2021/12/19 13:24:45;;;;;;;5.15;2.38;;;8.60;99.90;;;;;;5087926;28;20032;-60
2021/12/19 13:27:17;;;;;;;4.72;2.15;;;8.60;99.90;;;;;;5091729;28;20013;-60
2021/12/19 13:30:18;;;;;;;4.03;2.35;;;8.60;99.90;;;;;;5091349;28;20475;-61
2021/12/19 13:32:48;;;;;;;4.03;1.70;;;8.70;99.90;;;;;;5055191;28;20041;-60
2021/12/19 13:35:45;;;;;;;;;;;8.60;99.90;;;;;;5074447;28;20051;-60
2021/12/19 13:38:15;;;;;;;4.97;1.75;;;8.60;99.90;;;;;;5074877;28;19911;-60
2021/12/19 13:40:53;;;;;;;3.03;1.75;;;8.60;99.90;;;;;;5074780;28;20036;-60
2021/12/19 13:43:32;;;;;;;5.15;2.08;;;8.60;99.90;;;;;;5090315;28;20488;-60
2021/12/19 13:48:55;;;;;;;6.13;1.38;;;8.70;99.90;;;;;;5070707;28;20044;-60
2021/12/19 13:51:29;;;;;;;4.63;1.35;;;8.70;99.90;;;;;;5074496;28;20165;-60
2021/12/19 13:54:00;;;;;;;2.88;1.15;;;8.80;99.90;;;;;;5074532;28;20040;-60
2021/12/19 13:56:41;;;;;;;3.28;1.50;;;8.70;99.90;;;;;;5073868;28;20036;-60
2021/12/19 13:59:55;;;;;;;3.70;1.42;;;8.70;99.90;;;;;;5074291;28;20085;-60
2021/12/19 14:02:20;;;;;;;3.90;1.17;;;8.80;99.90;;;;;;5075824;28;20137;-60
2021/12/19 14:04:46;;;;;;;2.53;0.95;;;8.70;99.90;;;;;;5094854;28;20491;-60
2021/12/19 14:07:13;;;;;;;3.45;1.38;;;8.70;99.90;;;;;;5074777;28;20088;-60
2021/12/19 14:09:44;;;;;;;4.75;1.55;;;8.70;99.90;;;;;;5088996;28;20101;-60
2021/12/19 14:12:15;;;;;;;4.13;1.50;;;8.70;99.90;;;;;;5090943;28;20024;-60
2021/12/19 14:14:41;;;;;;;4.35;1.38;;;8.70;99.90;;;;;;5082309;28;20020;-60
2021/12/19 14:17:09;;;;;;;3.70;1.55;;;8.70;99.90;;;;;;5082003;28;20387;-60
2021/12/19 14:19:40;;;;;;;3.47;1.20;;;8.70;99.90;;;;;;5067855;28;20075;-60
2021/12/19 14:22:06;;;;;;;5.35;1.50;;;8.70;99.90;;;;;;5092848;28;20391;-60
2021/12/19 14:24:54;;;;;;;1.70;0.70;;;8.80;99.90;;;;;;5084748;28;20022;-60
2021/12/19 14:27:36;;;;;;;2.53;1.15;;;8.70;99.90;;;;;;5091243;28;20103;-60
2021/12/19 14:30:10;;;;;;;6.28;1.23;;;8.80;99.90;;;;;;5092734;28;20024;-60
2021/12/19 14:32:50;;;;;;;5.07;1.60;;;8.80;99.90;;;;;;5094271;28;20035;-60